Time;durP1;ratioP1;P1;durP2;ratioP2;P2;SDS_P1;SDS_P2;PMS_P1;PMS_P2;Temp;Humidity;BMP_temperature;BMP_pressure;BME280_temperature;BME280_humidity;BME280_pressure;Samples;Min_cycle;Max_cycle;Signal;HPM_P1;HPM_P2
2022/02/23 00:01:38;;;;;;;17.58;1.92;;;7.20;90.70;;;;;;4993803;28;20030;-76
2022/02/23 00:04:04;;;;;;;15.10;1.95;;;7.10;90.70;;;;;;4994015;28;20904;-76
2022/02/23 00:06:30;;;;;;;14.70;1.90;;;7.10;90.70;;;;;;5001355;28;20025;-76
2022/02/23 00:08:56;;;;;;;10.13;1.70;;;7.10;90.00;;;;;;4997905;28;20986;-76
2022/02/23 00:11:21;;;;;;;16.83;1.85;;;7.10;89.70;;;;;;4995234;28;20042;-76
2022/02/23 00:13:47;;;;;;;8.60;1.73;;;7.10;89.90;;;;;;4991647;28;20042;-76
2022/02/23 00:16:13;;;;;;;22.15;2.63;;;7.00;89.60;;;;;;5001344;28;20548;-76
2022/02/23 00:18:39;;;;;;;15.00;1.63;;;6.90;89.00;;;;;;5000217;28;20037;-76
2022/02/23 00:21:05;;;;;;;14.55;2.50;;;6.90;89.20;;;;;;4999332;28;20092;-76
2022/02/23 00:23:30;;;;;;;16.30;2.08;;;7.00;89.10;;;;;;4994126;28;20025;-76
2022/02/23 00:25:56;;;;;;;15.32;1.95;;;7.00;89.40;;;;;;4999681;28;20478;-77
2022/02/23 00:28:22;;;;;;;20.88;2.75;;;6.90;89.40;;;;;;5000708;28;20048;-76
2022/02/23 00:30:47;;;;;;;12.00;1.42;;;6.90;90.00;;;;;;4996661;28;20562;-76
2022/02/23 00:33:13;;;;;;;12.55;1.60;;;6.80;90.20;;;;;;4996323;28;20037;-76
2022/02/23 00:35:39;;;;;;;20.23;2.03;;;6.80;90.50;;;;;;4993869;28;20038;-77
2022/02/23 00:38:05;;;;;;;14.93;2.38;;;6.70;90.60;;;;;;4997436;28;20509;-77
2022/02/23 00:40:31;;;;;;;23.58;2.20;;;6.70;90.60;;;;;;4997688;28;20045;-76
2022/02/23 00:42:57;;;;;;;12.85;2.05;;;6.60;90.90;;;;;;4995724;28;20037;-76
2022/02/23 00:45:23;;;;;;;21.40;2.58;;;6.60;91.10;;;;;;4997907;28;20028;-76
2022/02/23 00:47:49;;;;;;;14.43;1.77;;;6.60;91.00;;;;;;4993376;28;20658;-76
2022/02/23 00:50:15;;;;;;;14.90;2.33;;;6.60;91.10;;;;;;5002927;28;20033;-76
2022/02/23 00:52:41;;;;;;;9.13;2.08;;;6.50;91.30;;;;;;4996656;28;20472;-75
2022/02/23 00:55:07;;;;;;;15.52;2.03;;;6.50;91.30;;;;;;4994643;28;20034;-76
2022/02/23 00:57:33;;;;;;;12.93;2.58;;;6.50;91.10;;;;;;4992477;28;20487;-75
2022/02/23 00:59:59;;;;;;;20.80;2.33;;;6.50;91.20;;;;;;4999758;28;20038;-76
2022/02/23 01:02:25;;;;;;;12.63;2.40;;;6.50;91.20;;;;;;5001536;28;20494;-76
2022/02/23 01:04:51;;;;;;;18.58;2.60;;;6.50;91.20;;;;;;4994957;28;20833;-76
2022/02/23 01:07:17;;;;;;;14.15;2.15;;;6.50;91.30;;;;;;4995438;28;20129;-76
2022/02/23 01:09:43;;;;;;;11.20;1.90;;;6.50;91.20;;;;;;4993164;28;20142;-75
2022/02/23 01:12:09;;;;;;;15.60;2.13;;;6.40;91.20;;;;;;5002726;28;20119;-76
2022/02/23 01:14:35;;;;;;;13.48;2.25;;;6.40;91.30;;;;;;4995104;28;20037;-75
2022/02/23 01:17:01;;;;;;;15.07;1.70;;;6.40;91.30;;;;;;4994984;28;20042;-76
2022/02/23 01:19:27;;;;;;;10.10;2.13;;;6.40;91.30;;;;;;4992803;28;20049;-75
2022/02/23 01:21:53;;;;;;;13.70;2.08;;;6.40;91.30;;;;;;4996998;28;20505;-75
2022/02/23 01:24:19;;;;;;;8.95;1.65;;;6.40;91.60;;;;;;4998186;28;20026;-76
2022/02/23 01:26:45;;;;;;;19.48;2.42;;;6.40;91.30;;;;;;4997429;28;20041;-76
2022/02/23 01:29:10;;;;;;;16.15;2.50;;;6.30;91.40;;;;;;4995565;28;20048;-76
2022/02/23 01:31:36;;;;;;;14.23;1.85;;;6.30;91.40;;;;;;4994004;28;20042;-76
2022/02/23 01:34:02;;;;;;;15.27;2.13;;;6.30;91.50;;;;;;5002335;28;20034;-76
2022/02/23 01:36:28;;;;;;;14.68;2.83;;;6.30;91.60;;;;;;4999728;28;20089;-76
2022/02/23 01:38:54;;;;;;;11.05;1.75;;;6.30;91.60;;;;;;4995829;28;20030;-76
2022/02/23 01:41:20;;;;;;;17.52;2.33;;;6.30;91.40;;;;;;5001040;28;20033;-75
2022/02/23 01:43:47;;;;;;;20.80;2.90;;;6.30;91.40;;;;;;5005967;28;20049;-75
2022/02/23 01:46:14;;;;;;;17.83;2.38;;;6.30;91.30;;;;;;5003615;28;20040;-76
2022/02/23 01:48:39;;;;;;;13.30;1.70;;;6.30;91.50;;;;;;5000507;28;20113;-75
2022/02/23 01:51:05;;;;;;;11.30;1.75;;;6.20;91.30;;;;;;5002118;28;20560;-76
2022/02/23 01:53:31;;;;;;;15.93;2.22;;;6.20;91.50;;;;;;5000775;28;20137;-75
2022/02/23 01:55:57;;;;;;;15.57;2.38;;;6.20;91.60;;;;;;5002730;28;20565;-75
2022/02/23 01:58:22;;;;;;;13.20;2.13;;;6.20;91.60;;;;;;5001655;28;20037;-75
2022/02/23 02:00:48;;;;;;;19.67;2.53;;;6.20;91.70;;;;;;4996402;28;20754;-75
2022/02/23 02:03:14;;;;;;;17.30;2.35;;;6.20;91.60;;;;;;4996799;28;20777;-75
2022/02/23 02:05:40;;;;;;;17.20;2.17;;;6.30;91.60;;;;;;5000382;28;20034;-75
2022/02/23 02:08:06;;;;;;;12.20;2.05;;;6.40;91.40;;;;;;5001286;28;20044;-75
2022/02/23 02:10:32;;;;;;;9.32;2.13;;;6.50;91.30;;;;;;4998528;28;20030;-74
2022/02/23 02:12:58;;;;;;;19.58;2.58;;;6.60;91.00;;;;;;4998098;28;20027;-75
2022/02/23 02:15:23;;;;;;;18.83;2.80;;;6.70;90.80;;;;;;5003541;28;20494;-75
2022/02/23 02:17:49;;;;;;;19.23;2.47;;;6.80;90.60;;;;;;5004864;28;20046;-75
2022/02/23 02:20:15;;;;;;;15.05;2.22;;;6.80;90.40;;;;;;5003188;28;20044;-75
2022/02/23 02:22:41;;;;;;;19.40;3.42;;;6.90;90.30;;;;;;5000692;28;20169;-75
2022/02/23 02:25:07;;;;;;;13.68;2.55;;;7.00;90.20;;;;;;4996447;28;20028;-75
2022/02/23 02:27:33;;;;;;;11.45;3.20;;;7.10;90.10;;;;;;5002977;28;20048;-75
2022/02/23 02:29:59;;;;;;;16.45;2.42;;;7.10;89.70;;;;;;4999455;28;20485;-76
2022/02/23 02:32:25;;;;;;;17.38;3.15;;;7.10;90.00;;;;;;5001343;28;20045;-77
2022/02/23 02:34:50;;;;;;;14.98;2.95;;;7.10;89.80;;;;;;4998120;28;20041;-76
2022/02/23 02:37:16;;;;;;;10.68;1.52;;;7.00;89.90;;;;;;4999013;28;20133;-76
2022/02/23 02:39:42;;;;;;;12.82;2.13;;;7.00;89.80;;;;;;4999939;28;20485;-76
2022/02/23 02:42:09;;;;;;;19.85;3.33;;;6.90;89.80;;;;;;4999850;28;20037;-75
2022/02/23 02:44:35;;;;;;;17.75;2.53;;;6.90;90.00;;;;;;4997551;28;20034;-76
2022/02/23 02:47:01;;;;;;;11.90;2.22;;;6.80;90.30;;;;;;4998439;28;20505;-76
2022/02/23 02:49:27;;;;;;;22.58;2.45;;;6.70;90.30;;;;;;5003168;28;20085;-76
2022/02/23 02:51:53;;;;;;;12.48;2.30;;;6.60;90.40;;;;;;4998735;28;20121;-76
2022/02/23 02:54:19;;;;;;;12.00;2.65;;;6.50;90.60;;;;;;4997285;28;20592;-76
2022/02/23 02:56:46;;;;;;;14.73;2.20;;;6.40;90.70;;;;;;4994031;28;20042;-76
2022/02/23 02:59:11;;;;;;;18.67;2.08;;;6.40;90.90;;;;;;5001811;28;20041;-77
2022/02/23 03:01:38;;;;;;;19.70;3.10;;;6.30;91.00;;;;;;5002052;28;20038;-76
2022/02/23 03:04:06;;;;;;;14.77;2.78;;;6.30;91.10;;;;;;4998607;28;20030;-76
2022/02/23 03:06:32;;;;;;;12.30;1.90;;;6.20;91.20;;;;;;4994234;28;20025;-76
2022/02/23 03:08:58;;;;;;;19.27;2.72;;;6.20;91.10;;;;;;4992951;28;20585;-77
2022/02/23 03:11:25;;;;;;;24.33;2.60;;;6.20;91.20;;;;;;5004568;28;20037;-76
2022/02/23 03:13:52;;;;;;;11.38;2.33;;;6.20;91.30;;;;;;4997614;28;20065;-76
2022/02/23 03:16:17;;;;;;;18.30;3.40;;;6.20;91.50;;;;;;5008505;28;20513;-76
2022/02/23 03:18:44;;;;;;;18.55;2.28;;;6.10;91.60;;;;;;4996768;28;20069;-76
2022/02/23 03:21:10;;;;;;;10.88;1.95;;;6.10;91.70;;;;;;4999176;28;20360;-76
2022/02/23 03:23:38;;;;;;;11.52;1.67;;;6.10;91.70;;;;;;5000453;28;20457;-76
2022/02/23 03:26:04;;;;;;;18.65;2.25;;;6.10;91.80;;;;;;4999332;28;20048;-76
2022/02/23 03:28:31;;;;;;;10.43;2.28;;;6.10;91.70;;;;;;4998176;28;20498;-76
2022/02/23 03:30:58;;;;;;;12.18;2.60;;;6.20;91.90;;;;;;4997477;28;20030;-76
2022/02/23 03:33:23;;;;;;;19.15;2.38;;;6.40;91.80;;;;;;5000667;28;20057;-76
2022/02/23 03:35:49;;;;;;;12.40;2.42;;;6.50;91.40;;;;;;4999260;28;20307;-76
2022/02/23 03:38:15;;;;;;;16.65;2.42;;;6.70;91.00;;;;;;4997317;28;20022;-77
2022/02/23 03:40:42;;;;;;;13.50;2.35;;;6.70;90.80;;;;;;4992913;28;20022;-76
2022/02/23 03:43:09;;;;;;;19.92;2.75;;;6.80;90.60;;;;;;5009167;28;20047;-77
2022/02/23 03:45:35;;;;;;;14.75;2.53;;;6.70;90.50;;;;;;5002772;28;20502;-76
2022/02/23 03:48:01;;;;;;;14.15;2.35;;;6.60;90.70;;;;;;5001100;28;20665;-77
2022/02/23 03:50:27;;;;;;;13.57;1.95;;;6.50;91.00;;;;;;4995583;28;20395;-77
2022/02/23 03:52:53;;;;;;;7.45;1.40;;;6.30;91.10;;;;;;4996434;28;20036;-76
2022/02/23 03:55:19;;;;;;;13.68;1.83;;;6.30;91.40;;;;;;5000809;28;20037;-77
2022/02/23 03:57:45;;;;;;;14.63;2.28;;;6.20;91.60;;;;;;4997261;28;20105;-76
2022/02/23 04:00:14;;;;;;;11.95;2.13;;;6.10;91.90;;;;;;4996444;28;20077;-76
2022/02/23 04:02:40;;;;;;;15.40;2.50;;;6.10;92.00;;;;;;4991605;28;20034;-77
2022/02/23 04:05:06;;;;;;;18.25;2.45;;;6.10;92.10;;;;;;5004096;28;20812;-77
2022/02/23 04:07:33;;;;;;;15.60;2.15;;;6.00;92.10;;;;;;5000348;28;20818;-76
2022/02/23 04:09:59;;;;;;;14.57;1.65;;;6.00;92.30;;;;;;4998534;28;20157;-76
2022/02/23 04:12:25;;;;;;;22.67;2.22;;;6.00;92.30;;;;;;4994485;28;20891;-76
2022/02/23 04:14:51;;;;;;;14.55;2.42;;;6.00;92.40;;;;;;4998966;28;20072;-77
2022/02/23 04:17:17;;;;;;;13.02;2.63;;;6.10;92.50;;;;;;4999800;28;20124;-77
2022/02/23 04:19:42;;;;;;;20.75;2.75;;;6.10;92.40;;;;;;4996485;28;20064;-77
2022/02/23 04:22:09;;;;;;;10.52;2.53;;;6.20;92.40;;;;;;4995992;28;20034;-77
2022/02/23 04:24:35;;;;;;;14.93;2.17;;;6.30;92.30;;;;;;4991917;28;20125;-77
2022/02/23 04:27:01;;;;;;;17.40;3.00;;;6.40;92.10;;;;;;5006831;28;20035;-77
2022/02/23 04:29:28;;;;;;;15.50;2.15;;;6.60;92.00;;;;;;5000443;28;20037;-77
2022/02/23 04:31:54;;;;;;;14.23;2.15;;;6.80;91.60;;;;;;4999734;28;20152;-76
2022/02/23 04:34:21;;;;;;;12.88;2.00;;;6.90;91.30;;;;;;4998919;28;20030;-77
2022/02/23 04:36:47;;;;;;;12.40;1.58;;;7.00;91.00;;;;;;4996427;28;20037;-77
2022/02/23 04:39:12;;;;;;;13.75;1.90;;;7.10;90.80;;;;;;4999295;28;20095;-77
2022/02/23 04:41:38;;;;;;;21.20;2.72;;;7.10;90.70;;;;;;4996205;28;20136;-76
2022/02/23 04:44:06;;;;;;;16.45;2.63;;;7.20;90.60;;;;;;4994552;28;20497;-77
2022/02/23 04:46:32;;;;;;;13.43;2.28;;;7.20;90.30;;;;;;4998235;28;20030;-76
2022/02/23 04:48:59;;;;;;;20.70;2.90;;;7.20;90.30;;;;;;5006668;28;20434;-76
2022/02/23 04:51:27;;;;;;;16.20;2.20;;;7.20;90.00;;;;;;4998749;28;20943;-77
2022/02/23 04:53:52;;;;;;;11.57;2.35;;;7.20;90.20;;;;;;4994219;28;20034;-76
2022/02/23 04:56:18;;;;;;;13.10;1.88;;;7.20;90.10;;;;;;4995032;28;20509;-77
2022/02/23 04:58:44;;;;;;;11.05;2.35;;;7.20;90.10;;;;;;4999999;28;20080;-76
2022/02/23 05:01:11;;;;;;;15.85;1.95;;;7.10;90.10;;;;;;4999974;28;20026;-77
2022/02/23 05:03:36;;;;;;;13.52;2.67;;;7.10;90.30;;;;;;4995905;28;20040;-76
2022/02/23 05:06:02;;;;;;;16.50;2.50;;;7.10;90.20;;;;;;4997686;28;20026;-76
2022/02/23 05:08:28;;;;;;;13.07;2.53;;;7.10;90.10;;;;;;4994019;28;20049;-76
2022/02/23 05:10:57;;;;;;;13.20;2.53;;;7.00;90.20;;;;;;4996002;28;20034;-76
2022/02/23 05:13:26;;;;;;;13.30;2.40;;;6.90;90.40;;;;;;4991410;28;20109;-76
2022/02/23 05:15:56;;;;;;;12.30;1.60;;;6.80;90.60;;;;;;4995081;28;20262;-77
2022/02/23 05:18:29;;;;;;;14.70;2.65;;;6.90;90.60;;;;;;4994296;28;20048;-76
2022/02/23 05:20:56;;;;;;;21.40;2.40;;;6.90;90.40;;;;;;4998857;28;20037;-76
2022/02/23 05:23:22;;;;;;;7.32;2.45;;;6.90;90.40;;;;;;4995792;28;20100;-77
2022/02/23 05:25:48;;;;;;;19.52;3.15;;;7.00;90.20;;;;;;5001337;28;20026;-77
2022/02/23 05:28:14;;;;;;;14.93;2.40;;;7.00;90.20;;;;;;4997685;28;20100;-77
2022/02/23 05:30:40;;;;;;;16.35;2.45;;;7.10;90.20;;;;;;5000911;28;20061;-77
2022/02/23 05:33:05;;;;;;;13.15;2.00;;;7.00;90.20;;;;;;4998216;28;20169;-77
2022/02/23 05:35:32;;;;;;;13.18;1.98;;;7.00;90.10;;;;;;4998309;28;20080;-77
2022/02/23 05:37:58;;;;;;;15.40;2.17;;;7.10;90.10;;;;;;4994422;28;20041;-77
2022/02/23 05:40:24;;;;;;;13.68;2.40;;;7.10;89.70;;;;;;5003264;28;20038;-77
2022/02/23 05:42:50;;;;;;;16.92;2.90;;;7.20;89.40;;;;;;4998014;28;20108;-77
2022/02/23 05:45:15;;;;;;;20.30;2.65;;;7.30;89.50;;;;;;5010368;28;20049;-77
2022/02/23 05:47:41;;;;;;;12.75;1.88;;;7.30;89.30;;;;;;4995744;28;20041;-76
2022/02/23 05:50:07;;;;;;;19.15;2.78;;;7.30;89.30;;;;;;4994923;28;20041;-77
2022/02/23 05:52:33;;;;;;;7.35;1.90;;;7.30;88.90;;;;;;4997479;28;20099;-77
2022/02/23 05:54:59;;;;;;;13.43;2.28;;;7.30;88.90;;;;;;4991286;28;20109;-77
2022/02/23 05:57:24;;;;;;;15.75;3.22;;;7.30;89.20;;;;;;5000020;28;20088;-77
2022/02/23 05:59:51;;;;;;;11.80;2.45;;;7.30;89.30;;;;;;4993405;28;20045;-77
2022/02/23 06:02:17;;;;;;;18.23;2.80;;;7.30;89.30;;;;;;4993130;28;20030;-76
2022/02/23 06:04:42;;;;;;;12.45;2.20;;;7.20;89.10;;;;;;4995845;28;20716;-77
2022/02/23 06:07:08;;;;;;;14.65;2.33;;;7.10;89.70;;;;;;4999981;28;20532;-77
2022/02/23 06:09:34;;;;;;;16.63;2.13;;;6.90;89.60;;;;;;4996066;28;20045;-76
2022/02/23 06:12:01;;;;;;;14.25;1.70;;;6.80;90.20;;;;;;4993654;28;20053;-77
2022/02/23 06:14:27;;;;;;;14.95;2.60;;;6.70;90.40;;;;;;4996070;28;20034;-77
2022/02/23 06:16:55;;;;;;;13.25;2.03;;;6.60;90.60;;;;;;5002190;28;20039;-77
2022/02/23 06:19:20;;;;;;;13.30;2.25;;;6.50;90.60;;;;;;4992750;28;20041;-77
2022/02/23 06:21:46;;;;;;;12.23;2.42;;;6.50;90.80;;;;;;4988197;28;20061;-77
2022/02/23 06:24:12;;;;;;;13.27;2.20;;;6.40;91.00;;;;;;4989430;28;20050;-77
2022/02/23 06:26:38;;;;;;;16.23;2.95;;;6.40;91.10;;;;;;4996252;28;20064;-76
2022/02/23 06:29:04;;;;;;;13.55;1.83;;;6.40;91.20;;;;;;4999023;28;20168;-73
2022/02/23 06:31:30;;;;;;;11.07;2.03;;;6.40;91.20;;;;;;5004108;28;20112;-73
2022/02/23 06:33:56;;;;;;;14.70;1.92;;;6.40;91.20;;;;;;5003136;28;20080;-73
2022/02/23 06:36:21;;;;;;;8.57;2.20;;;6.40;91.20;;;;;;4999924;28;20111;-73
2022/02/23 06:38:47;;;;;;;12.30;2.00;;;6.40;91.30;;;;;;4993768;28;20042;-73
2022/02/23 06:41:18;;;;;;;16.65;2.15;;;6.40;91.30;;;;;;4988165;28;20069;-73
2022/02/23 06:43:47;;;;;;;15.55;2.58;;;6.40;91.30;;;;;;4993085;28;20049;-73
2022/02/23 06:46:14;;;;;;;18.55;2.60;;;6.30;91.30;;;;;;4998693;28;20060;-73
2022/02/23 06:48:40;;;;;;;17.60;2.42;;;6.40;91.20;;;;;;4990265;28;20128;-72
2022/02/23 06:51:07;;;;;;;10.35;2.05;;;6.50;91.40;;;;;;4992997;28;20410;-73
2022/02/23 06:53:33;;;;;;;17.15;2.50;;;6.50;91.10;;;;;;4988357;28;20457;-73
2022/02/23 06:55:59;;;;;;;8.75;2.08;;;6.50;91.10;;;;;;4996997;28;20176;-73
2022/02/23 06:58:25;;;;;;;12.85;2.65;;;6.60;91.00;;;;;;4994684;28;20030;-73
2022/02/23 07:00:51;;;;;;;13.75;3.03;;;6.70;90.80;;;;;;4995688;28;20030;-73
2022/02/23 07:03:17;;;;;;;18.60;2.80;;;6.80;90.70;;;;;;4997214;28;20659;-73
2022/02/23 07:05:44;;;;;;;15.15;2.90;;;6.80;90.50;;;;;;4991946;28;20029;-73
2022/02/23 07:08:10;;;;;;;23.48;2.10;;;6.80;90.40;;;;;;4994527;28;20081;-73
2022/02/23 07:10:37;;;;;;;11.20;1.85;;;6.90;90.30;;;;;;4994462;28;20038;-73
2022/02/23 07:13:06;;;;;;;12.02;1.83;;;6.90;90.20;;;;;;4995645;28;20136;-73
2022/02/23 07:15:33;;;;;;;20.48;2.50;;;7.00;90.40;;;;;;4987911;28;20104;-72
2022/02/23 07:17:59;;;;;;;12.65;2.40;;;7.00;90.00;;;;;;4996096;28;20041;-73
2022/02/23 07:20:24;;;;;;;16.48;3.25;;;7.10;89.50;;;;;;4991570;28;20038;-73
2022/02/23 07:22:51;;;;;;;16.48;2.65;;;7.20;89.30;;;;;;4994083;28;20058;-73
2022/02/23 07:25:17;;;;;;;11.85;2.25;;;7.30;88.70;;;;;;4988127;28;20034;-73
2022/02/23 07:27:44;;;;;;;15.63;1.92;;;7.50;88.60;;;;;;4991856;28;20040;-73
2022/02/23 07:30:12;;;;;;;8.95;2.05;;;7.60;87.90;;;;;;4990933;28;20037;-73
2022/02/23 07:32:38;;;;;;;14.23;2.00;;;7.80;86.80;;;;;;4997228;28;20038;-73
2022/02/23 07:35:06;;;;;;;13.02;2.60;;;7.90;86.00;;;;;;4994063;28;20060;-73
2022/02/23 07:37:33;;;;;;;15.90;2.65;;;8.10;85.40;;;;;;4993450;28;20033;-73
2022/02/23 07:40:20;;;;;;;10.82;2.03;;;8.20;84.60;;;;;;4987107;28;20802;-72
2022/02/23 07:42:47;;;;;;;14.95;2.15;;;8.30;83.80;;;;;;4992117;28;20026;-73
2022/02/23 07:45:13;;;;;;;13.60;2.40;;;8.50;83.60;;;;;;4996941;28;20173;-73
2022/02/23 07:47:38;;;;;;;11.15;1.67;;;8.90;82.40;;;;;;5002688;28;20037;-73
2022/02/23 07:50:09;;;;;;;14.63;2.25;;;9.20;80.50;;;;;;4993158;28;20033;-73
2022/02/23 07:52:36;;;;;;;14.02;2.20;;;9.50;79.40;;;;;;4993136;28;20646;-73
2022/02/23 07:55:02;;;;;;;14.80;2.05;;;9.50;79.00;;;;;;4990140;28;20030;-73
2022/02/23 07:57:28;;;;;;;7.85;1.90;;;9.30;78.30;;;;;;4994628;28;20102;-72
2022/02/23 07:59:54;;;;;;;17.08;2.50;;;9.50;78.10;;;;;;4988198;28;20038;-73
2022/02/23 08:02:21;;;;;;;20.83;2.10;;;11.40;73.60;;;;;;4993634;28;20022;-73
2022/02/23 08:04:51;;;;;;;12.88;1.90;;;14.30;61.80;;;;;;4992041;28;20045;-73
2022/02/23 08:07:20;;;;;;;7.00;1.75;;;15.40;55.90;;;;;;4998612;28;20034;-73
2022/02/23 08:09:46;;;;;;;14.38;2.55;;;15.40;54.90;;;;;;4991757;28;20042;-74
2022/02/23 08:12:12;;;;;;;10.50;2.20;;;14.40;56.90;;;;;;4991381;28;20030;-75
2022/02/23 08:14:39;;;;;;;11.55;2.15;;;14.00;57.90;;;;;;4995626;28;20047;-68
2022/02/23 08:19:51;;;;;;;8.88;1.85;;;13.20;60.60;;;;;;4992985;28;20033;-75
2022/02/23 08:22:18;;;;;;;14.35;2.13;;;13.30;60.10;;;;;;4984384;28;20157;-74
2022/02/23 08:24:46;;;;;;;13.88;2.40;;;14.00;58.00;;;;;;4994065;28;20073;-75
2022/02/23 08:27:18;;;;;;;9.60;2.20;;;14.70;56.20;;;;;;4994550;28;20548;-75
2022/02/23 08:29:45;;;;;;;14.45;2.33;;;14.70;55.50;;;;;;4991513;28;20044;-74
2022/02/23 08:32:13;;;;;;;10.60;2.53;;;14.20;56.80;;;;;;4993773;28;20033;-74
2022/02/23 08:34:42;;;;;;;14.88;2.47;;;13.80;58.00;;;;;;5002280;28;20048;-74
2022/02/23 08:37:10;;;;;;;12.30;2.22;;;14.00;58.50;;;;;;4995832;28;20033;-75
2022/02/23 08:39:36;;;;;;;12.32;2.33;;;13.90;57.90;;;;;;4994416;28;20038;-75
2022/02/23 08:42:07;;;;;;;11.02;1.95;;;13.70;58.20;;;;;;4992716;28;20049;-75
2022/02/23 08:44:33;;;;;;;11.60;1.98;;;13.50;58.90;;;;;;4992979;28;20148;-75
2022/02/23 08:46:59;;;;;;;14.05;2.20;;;13.50;59.50;;;;;;4994567;28;20072;-75
2022/02/23 08:49:25;;;;;;;11.52;2.13;;;13.50;59.30;;;;;;4996421;28;20052;-75
2022/02/23 08:51:51;;;;;;;12.13;2.00;;;13.20;59.10;;;;;;4993623;28;20506;-75
2022/02/23 08:54:19;;;;;;;13.65;2.33;;;13.00;60.60;;;;;;4991742;28;20041;-72
2022/02/23 08:56:46;;;;;;;13.43;2.85;;;12.80;60.60;;;;;;4992720;28;20045;-75
2022/02/23 08:59:12;;;;;;;8.00;1.63;;;12.80;61.30;;;;;;4994397;28;20076;-74
2022/02/23 09:01:38;;;;;;;7.78;1.75;;;12.90;60.40;;;;;;4997106;28;20145;-75
2022/02/23 09:04:04;;;;;;;15.77;2.50;;;13.60;59.20;;;;;;4993433;28;20037;-75
2022/02/23 09:06:33;;;;;;;10.77;2.38;;;14.00;57.90;;;;;;4996607;28;20033;-74
2022/02/23 09:09:03;;;;;;;14.70;2.40;;;13.40;58.00;;;;;;4992230;28;20070;-74
2022/02/23 09:11:29;;;;;;;15.23;3.20;;;13.30;57.60;;;;;;4990210;28;20049;-74
2022/02/23 09:13:55;;;;;;;15.80;4.38;;;15.20;54.50;;;;;;4992879;28;20038;-74
2022/02/23 09:16:21;;;;;;;15.02;2.92;;;17.40;49.20;;;;;;4993148;28;20502;-75
2022/02/23 09:18:47;;;;;;;11.27;1.98;;;18.90;44.80;;;;;;4992650;28;20141;-72
2022/02/23 09:21:12;;;;;;;9.43;2.03;;;18.70;43.40;;;;;;4991937;28;20018;-69
2022/02/23 09:23:38;;;;;;;9.25;2.28;;;19.90;42.40;;;;;;4994025;28;20069;-76
2022/02/23 09:26:05;;;;;;;6.85;2.22;;;22.10;38.10;;;;;;4998999;28;20030;-77
2022/02/23 09:28:35;;;;;;;10.45;2.30;;;23.30;35.70;;;;;;5000660;28;20053;-76
2022/02/23 09:31:01;;;;;;;10.23;1.90;;;24.60;34.20;;;;;;4995674;28;20038;-77
2022/02/23 09:33:27;;;;;;;9.85;2.30;;;24.00;34.30;;;;;;5007543;28;20033;-77
2022/02/23 09:35:52;;;;;;;9.63;2.80;;;22.20;37.00;;;;;;4995647;28;20046;-77
2022/02/23 09:38:19;;;;;;;8.50;2.22;;;20.30;39.60;;;;;;4995212;28;20037;-76
2022/02/23 09:40:48;;;;;;;10.23;2.33;;;18.50;42.30;;;;;;4992932;28;20512;-75
2022/02/23 09:43:15;;;;;;;12.13;2.00;;;17.10;45.40;;;;;;5001096;28;20034;-76
2022/02/23 09:45:46;;;;;;;12.52;2.20;;;15.50;46.80;;;;;;5000531;28;20087;-76
2022/02/23 09:48:12;;;;;;;9.68;2.25;;;15.70;49.20;;;;;;4989801;28;20081;-76
2022/02/23 09:50:38;;;;;;;7.65;1.73;;;18.90;44.00;;;;;;4998438;28;20037;-76
2022/02/23 09:53:05;;;;;;;9.00;2.13;;;23.50;35.80;;;;;;4993236;28;20037;-75
2022/02/23 09:55:31;;;;;;;11.48;2.47;;;27.10;31.10;;;;;;5000419;28;20045;-75
2022/02/23 09:57:57;;;;;;;8.10;1.85;;;27.70;29.70;;;;;;4996992;28;20036;-73
2022/02/23 10:00:23;;;;;;;10.63;2.47;;;26.00;31.00;;;;;;5000470;28;20080;-76
2022/02/23 10:02:53;;;;;;;11.23;2.22;;;23.90;33.80;;;;;;4993207;28;20807;-76
2022/02/23 10:05:21;;;;;;;8.68;2.30;;;22.00;36.40;;;;;;5002992;28;20025;-75
2022/02/23 10:07:46;;;;;;;9.43;2.03;;;21.10;37.40;;;;;;4995427;28;20038;-76
2022/02/23 10:10:13;;;;;;;9.40;1.95;;;20.90;37.80;;;;;;4992256;28;20025;-74
2022/02/23 10:12:41;;;;;;;8.13;1.75;;;22.40;36.20;;;;;;4995733;28;20046;-75
2022/02/23 10:15:12;;;;;;;7.43;2.08;;;23.60;33.90;;;;;;4997689;28;20882;-75
2022/02/23 10:17:47;;;;;;;8.55;1.85;;;25.10;31.60;;;;;;4991785;28;20128;-75
2022/02/23 10:20:25;;;;;;;7.47;2.07;;;23.70;32.70;;;;;;4992094;28;20352;-75
2022/02/23 10:22:57;;;;;;;8.00;1.85;;;22.40;34.80;;;;;;4998815;28;20103;-75
2022/02/23 10:25:25;;;;;;;7.78;2.13;;;22.40;35.00;;;;;;4991384;28;20176;-75
2022/02/23 10:28:04;;;;;;;10.25;2.20;;;22.30;34.80;;;;;;4988021;28;20097;-75
2022/02/23 10:30:30;;;;;;;9.50;2.30;;;21.10;36.50;;;;;;4998186;28;20043;-75
2022/02/23 10:33:10;;;;;;;8.40;1.90;;;20.10;38.00;;;;;;4993812;28;20538;-70
2022/02/23 10:35:37;;;;;;;7.53;1.90;;;21.40;37.40;;;;;;4989935;28;20034;-73
2022/02/23 10:38:07;;;;;;;10.55;2.20;;;23.70;34.00;;;;;;4998413;28;20040;-73
2022/02/23 10:40:43;;;;;;;13.40;2.40;;;26.80;30.60;;;;;;4999677;28;20107;-73
2022/02/23 10:43:27;;;;;;;12.70;2.47;;;29.90;27.50;;;;;;4994272;28;20030;-74
2022/02/23 10:46:00;;;;;;;4.93;1.75;;;29.60;26.70;;;;;;4998800;28;20038;-74
2022/02/23 10:48:39;;;;;;;12.30;1.95;;;27.90;28.30;;;;;;4994984;28;20030;-75
2022/02/23 10:51:10;;;;;;;6.63;1.95;;;26.40;29.20;;;;;;5000460;28;20022;-76
2022/02/23 10:53:37;;;;;;;10.05;2.88;;;25.40;29.90;;;;;;4994402;28;20092;-75
2022/02/23 10:56:30;;;;;;;10.93;2.60;;;26.70;29.50;;;;;;4993989;28;20740;-75
2022/02/23 10:59:03;;;;;;;12.57;2.85;;;28.90;27.60;;;;;;4996157;28;20048;-76
2022/02/23 11:01:30;;;;;;;8.35;2.20;;;30.40;26.90;;;;;;4991609;28;20066;-77
2022/02/23 11:03:56;;;;;;;9.45;2.30;;;32.30;25.40;;;;;;4994894;28;20398;-76
2022/02/23 11:06:23;;;;;;;11.85;1.80;;;33.50;24.50;;;;;;4998891;28;20162;-75
2022/02/23 11:08:54;;;;;;;8.27;2.28;;;33.10;24.60;;;;;;4998722;28;20092;-75
2022/02/23 11:11:21;;;;;;;10.98;2.65;;;31.80;24.90;;;;;;5000091;28;20117;-75
2022/02/23 11:13:48;;;;;;;8.98;1.85;;;31.60;25.10;;;;;;4989713;28;20042;-76
2022/02/23 11:16:15;;;;;;;7.60;2.25;;;32.00;25.20;;;;;;4989365;28;20065;-76
2022/02/23 11:18:43;;;;;;;13.82;2.05;;;33.00;24.90;;;;;;4993574;28;20041;-75
2022/02/23 11:21:12;;;;;;;11.35;2.17;;;34.60;24.20;;;;;;4995784;28;20032;-74
2022/02/23 11:23:39;;;;;;;6.20;1.77;;;35.00;23.70;;;;;;5003019;28;20164;-75
2022/02/23 11:26:06;;;;;;;5.25;2.08;;;32.80;24.30;;;;;;4991673;28;20049;-75
2022/02/23 11:28:35;;;;;;;10.27;2.17;;;29.20;26.70;;;;;;4991682;28;20422;-76
2022/02/23 11:31:02;;;;;;;11.55;2.22;;;25.30;29.80;;;;;;4993086;28;20315;-74
2022/02/23 11:33:46;;;;;;;8.05;2.10;;;22.20;34.30;;;;;;4992719;28;20121;-75
2022/02/23 11:36:24;;;;;;;13.02;2.10;;;19.70;38.60;;;;;;4991014;28;20441;-76
2022/02/23 11:38:52;;;;;;;10.57;1.90;;;18.30;41.70;;;;;;4995461;28;20383;-76
2022/02/23 11:41:25;;;;;;;9.07;1.98;;;17.20;43.70;;;;;;4991996;28;20085;-75
2022/02/23 11:44:14;;;;;;;14.18;2.28;;;16.50;45.60;;;;;;4992812;28;20414;-76
2022/02/23 11:47:07;;;;;;;8.48;1.55;;;16.10;48.00;;;;;;4988151;28;20114;-75
2022/02/23 11:49:56;;;;;;;10.63;2.33;;;15.70;48.40;;;;;;4993559;28;20041;-75
2022/02/23 11:58:53;;;;;;;14.45;2.03;;;15.10;51.20;;;;;;4997491;28;20044;-76
2022/02/23 12:01:47;;;;;;;11.70;2.38;;;14.90;50.90;;;;;;4997074;28;20044;-76
2022/02/23 12:04:16;;;;;;;10.00;1.88;;;14.80;50.60;;;;;;4994701;28;20037;-76
2022/02/23 12:07:08;;;;;;;12.55;1.92;;;14.70;50.90;;;;;;4995526;28;20048;-75
2022/02/23 12:09:55;;;;;;;4.93;1.63;;;14.40;50.90;;;;;;4997858;28;20364;-74
2022/02/23 12:12:51;;;;;;;7.88;1.77;;;14.10;51.20;;;;;;5001661;28;20151;-74
2022/02/23 12:15:33;;;;;;;12.93;2.13;;;14.00;51.30;;;;;;4990070;28;20026;-75
2022/02/23 12:18:00;;;;;;;11.80;1.67;;;14.00;52.40;;;;;;4993423;28;20121;-75
2022/02/23 12:20:35;;;;;;;12.55;2.38;;;14.00;51.30;;;;;;4995248;28;20031;-75
2022/02/23 12:23:09;;;;;;;10.95;2.13;;;13.90;52.20;;;;;;4993560;28;20027;-74
2022/02/23 12:25:58;;;;;;;9.52;1.67;;;13.90;52.90;;;;;;4990382;28;20482;-75
2022/02/23 12:28:30;;;;;;;10.00;1.38;;;13.70;51.50;;;;;;4995923;28;20367;-75
2022/02/23 12:31:06;;;;;;;9.95;2.17;;;13.70;54.10;;;;;;4993196;28;20431;-75
2022/02/23 12:33:32;;;;;;;;;;;13.70;52.80;;;;;;4989930;28;20056;-75
2022/02/23 12:36:00;;;;;;;10.90;1.73;;;13.70;53.10;;;;;;4996639;28;19920;-74
2022/02/23 12:38:30;;;;;;;10.38;1.88;;;13.80;53.30;;;;;;5000689;28;20140;-75
2022/02/23 12:40:58;;;;;;;10.00;2.17;;;13.70;52.40;;;;;;4993113;28;20038;-75
2022/02/23 12:43:24;;;;;;;7.10;1.65;;;13.70;52.50;;;;;;4990878;28;20116;-74
2022/02/23 12:45:57;;;;;;;7.25;1.55;;;13.50;53.40;;;;;;4991920;28;20038;-75
2022/02/23 12:48:30;;;;;;;8.80;1.88;;;13.50;53.50;;;;;;4992698;28;20061;-74
2022/02/23 12:51:03;;;;;;;8.27;2.00;;;13.60;53.90;;;;;;4996504;28;20033;-76
2022/02/23 12:53:33;;;;;;;9.10;1.90;;;13.50;51.70;;;;;;4992328;28;20142;-76
2022/02/23 12:56:16;;;;;;;10.32;2.05;;;13.50;52.30;;;;;;4995039;28;20034;-75
2022/02/23 12:58:41;;;;;;;5.18;1.85;;;13.30;51.60;;;;;;4993265;28;20507;-76